sensor_id;sensor_type;location;lat;lon;timestamp;temperature;humidity
74416;SHT31;62850;42.428;25.618;2023-06-04T00:01:57;19.37;65.58
74416;SHT31;62850;42.428;25.618;2023-06-04T00:04:22;19.32;66.10
74416;SHT31;62850;42.428;25.618;2023-06-04T00:06:48;19.32;66.28
74416;SHT31;62850;42.428;25.618;2023-06-04T00:09:14;19.37;66.51
74416;SHT31;62850;42.428;25.618;2023-06-04T00:11:40;19.16;67.43
74416;SHT31;62850;42.428;25.618;2023-06-04T00:14:05;19.15;67.63
74416;SHT31;62850;42.428;25.618;2023-06-04T00:16:31;19.25;67.44
74416;SHT31;62850;42.428;25.618;2023-06-04T00:18:56;19.33;67.50
74416;SHT31;62850;42.428;25.618;2023-06-04T00:21:22;19.42;67.27
74416;SHT31;62850;42.428;25.618;2023-06-04T00:23:47;19.43;67.00
74416;SHT31;62850;42.428;25.618;2023-06-04T00:26:13;19.54;66.53
74416;SHT31;62850;42.428;25.618;2023-06-04T00:28:38;19.59;66.23
74416;SHT31;62850;42.428;25.618;2023-06-04T00:31:06;19.62;66.20
74416;SHT31;62850;42.428;25.618;2023-06-04T00:33:32;19.62;66.11
74416;SHT31;62850;42.428;25.618;2023-06-04T00:35:58;19.73;65.91
74416;SHT31;62850;42.428;25.618;2023-06-04T00:38:23;19.83;65.79
74416;SHT31;62850;42.428;25.618;2023-06-04T00:40:48;19.87;65.75
74416;SHT31;62850;42.428;25.618;2023-06-04T00:43:15;19.95;65.82
74416;SHT31;62850;42.428;25.618;2023-06-04T00:45:40;19.91;65.97
74416;SHT31;62850;42.428;25.618;2023-06-04T00:48:07;19.98;66.10
74416;SHT31;62850;42.428;25.618;2023-06-04T00:50:33;19.91;66.35
74416;SHT31;62850;42.428;25.618;2023-06-04T00:52:59;19.97;66.41
74416;SHT31;62850;42.428;25.618;2023-06-04T00:55:24;19.97;66.05
74416;SHT31;62850;42.428;25.618;2023-06-04T00:57:50;19.98;66.20
74416;SHT31;62850;42.428;25.618;2023-06-04T01:00:16;19.98;66.62
74416;SHT31;62850;42.428;25.618;2023-06-04T01:02:43;19.91;66.92
74416;SHT31;62850;42.428;25.618;2023-06-04T01:08:08;20.03;66.81
74416;SHT31;62850;42.428;25.618;2023-06-04T01:10:35;19.94;66.36
74416;SHT31;62850;42.428;25.618;2023-06-04T01:13:01;19.93;66.37
74416;SHT31;62850;42.428;25.618;2023-06-04T01:15:27;19.90;66.54
74416;SHT31;62850;42.428;25.618;2023-06-04T01:17:57;19.78;66.48
74416;SHT31;62850;42.428;25.618;2023-06-04T01:23:14;19.63;66.43
74416;SHT31;62850;42.428;25.618;2023-06-04T01:25:44;19.63;66.44
74416;SHT31;62850;42.428;25.618;2023-06-04T01:28:15;19.57;66.14
74416;SHT31;62850;42.428;25.618;2023-06-04T01:30:44;19.42;66.29
74416;SHT31;62850;42.428;25.618;2023-06-04T01:33:16;19.35;66.13
74416;SHT31;62850;42.428;25.618;2023-06-04T01:35:42;19.33;66.25
74416;SHT31;62850;42.428;25.618;2023-06-04T01:38:08;19.37;66.09
74416;SHT31;62850;42.428;25.618;2023-06-04T01:40:34;19.32;65.96
74416;SHT31;62850;42.428;25.618;2023-06-04T01:42:59;19.40;66.12
74416;SHT31;62850;42.428;25.618;2023-06-04T01:45:26;19.52;66.09
74416;SHT31;62850;42.428;25.618;2023-06-04T01:47:53;19.62;65.76
74416;SHT31;62850;42.428;25.618;2023-06-04T01:50:19;19.57;65.05
74416;SHT31;62850;42.428;25.618;2023-06-04T01:52:44;19.53;64.43
74416;SHT31;62850;42.428;25.618;2023-06-04T01:55:12;19.56;64.33
74416;SHT31;62850;42.428;25.618;2023-06-04T01:57:38;19.47;64.59
74416;SHT31;62850;42.428;25.618;2023-06-04T02:00:05;19.47;65.13
74416;SHT31;62850;42.428;25.618;2023-06-04T02:02:33;19.52;64.67
74416;SHT31;62850;42.428;25.618;2023-06-04T02:04:58;19.37;64.52
74416;SHT31;62850;42.428;25.618;2023-06-04T02:07:24;19.33;64.72
74416;SHT31;62850;42.428;25.618;2023-06-04T02:09:51;19.33;64.42
74416;SHT31;62850;42.428;25.618;2023-06-04T02:12:17;19.37;64.45
74416;SHT31;62850;42.428;25.618;2023-06-04T02:14:43;19.42;64.61
74416;SHT31;62850;42.428;25.618;2023-06-04T02:17:10;19.50;65.02
74416;SHT31;62850;42.428;25.618;2023-06-04T02:19:44;19.50;64.01
74416;SHT31;62850;42.428;25.618;2023-06-04T02:22:11;19.49;63.98
74416;SHT31;62850;42.428;25.618;2023-06-04T02:24:38;19.40;64.14
74416;SHT31;62850;42.428;25.618;2023-06-04T02:27:05;19.42;64.16
74416;SHT31;62850;42.428;25.618;2023-06-04T02:29:31;19.30;64.34
74416;SHT31;62850;42.428;25.618;2023-06-04T02:31:56;19.30;64.50
74416;SHT31;62850;42.428;25.618;2023-06-04T02:34:21;19.33;64.54
74416;SHT31;62850;42.428;25.618;2023-06-04T02:36:48;19.32;64.46
74416;SHT31;62850;42.428;25.618;2023-06-04T02:39:17;19.33;64.53
74416;SHT31;62850;42.428;25.618;2023-06-04T02:41:43;19.35;64.46
74416;SHT31;62850;42.428;25.618;2023-06-04T02:44:08;19.36;64.57
74416;SHT31;62850;42.428;25.618;2023-06-04T02:46:34;19.39;64.56
74416;SHT31;62850;42.428;25.618;2023-06-04T02:48:59;19.49;65.04
74416;SHT31;62850;42.428;25.618;2023-06-04T02:51:25;19.46;65.37
74416;SHT31;62850;42.428;25.618;2023-06-04T02:53:50;19.45;64.58
74416;SHT31;62850;42.428;25.618;2023-06-04T02:56:16;19.42;65.37
74416;SHT31;62850;42.428;25.618;2023-06-04T02:58:54;19.42;64.69
74416;SHT31;62850;42.428;25.618;2023-06-04T03:01:25;19.45;65.64
74416;SHT31;62850;42.428;25.618;2023-06-04T03:03:51;19.50;64.81
74416;SHT31;62850;42.428;25.618;2023-06-04T03:06:18;19.52;65.07
74416;SHT31;62850;42.428;25.618;2023-06-04T03:08:45;19.59;65.03
74416;SHT31;62850;42.428;25.618;2023-06-04T03:11:11;19.57;65.15
74416;SHT31;62850;42.428;25.618;2023-06-04T03:13:36;19.50;65.44
74416;SHT31;62850;42.428;25.618;2023-06-04T03:16:02;19.47;65.45
74416;SHT31;62850;42.428;25.618;2023-06-04T03:18:30;19.49;65.59
74416;SHT31;62850;42.428;25.618;2023-06-04T03:20:56;19.52;65.61
74416;SHT31;62850;42.428;25.618;2023-06-04T03:23:22;19.53;65.40
74416;SHT31;62850;42.428;25.618;2023-06-04T03:25:47;19.50;65.55
74416;SHT31;62850;42.428;25.618;2023-06-04T03:28:13;19.49;65.71
74416;SHT31;62850;42.428;25.618;2023-06-04T03:30:40;19.46;66.20
74416;SHT31;62850;42.428;25.618;2023-06-04T03:33:06;19.42;66.32
74416;SHT31;62850;42.428;25.618;2023-06-04T03:35:32;19.39;66.11
74416;SHT31;62850;42.428;25.618;2023-06-04T03:37:58;19.36;66.10
74416;SHT31;62850;42.428;25.618;2023-06-04T03:40:23;19.33;66.09
74416;SHT31;62850;42.428;25.618;2023-06-04T03:42:49;19.30;66.37
74416;SHT31;62850;42.428;25.618;2023-06-04T03:45:14;19.30;66.03
74416;SHT31;62850;42.428;25.618;2023-06-04T03:47:40;19.32;66.51
74416;SHT31;62850;42.428;25.618;2023-06-04T03:50:06;19.25;65.87
74416;SHT31;62850;42.428;25.618;2023-06-04T03:52:31;19.26;66.65
74416;SHT31;62850;42.428;25.618;2023-06-04T03:54:57;19.27;66.17
74416;SHT31;62850;42.428;25.618;2023-06-04T03:57:22;19.29;66.76
74416;SHT31;62850;42.428;25.618;2023-06-04T03:59:48;19.27;66.69
74416;SHT31;62850;42.428;25.618;2023-06-04T04:02:14;19.22;66.61
74416;SHT31;62850;42.428;25.618;2023-06-04T04:04:40;19.23;66.60
74416;SHT31;62850;42.428;25.618;2023-06-04T04:07:05;19.27;66.72
74416;SHT31;62850;42.428;25.618;2023-06-04T04:09:31;19.27;66.86
74416;SHT31;62850;42.428;25.618;2023-06-04T04:11:56;19.26;66.14
74416;SHT31;62850;42.428;25.618;2023-06-04T04:14:21;19.26;66.77
74416;SHT31;62850;42.428;25.618;2023-06-04T04:16:47;19.33;66.94
74416;SHT31;62850;42.428;25.618;2023-06-04T04:19:13;19.33;65.96
74416;SHT31;62850;42.428;25.618;2023-06-04T04:21:38;19.43;65.71
74416;SHT31;62850;42.428;25.618;2023-06-04T04:24:04;19.43;65.84
74416;SHT31;62850;42.428;25.618;2023-06-04T04:26:29;19.49;65.96
74416;SHT31;62850;42.428;25.618;2023-06-04T04:28:55;19.50;66.06
74416;SHT31;62850;42.428;25.618;2023-06-04T04:31:24;19.49;66.48
74416;SHT31;62850;42.428;25.618;2023-06-04T04:33:49;19.59;66.41
74416;SHT31;62850;42.428;25.618;2023-06-04T04:36:16;19.52;66.17
74416;SHT31;62850;42.428;25.618;2023-06-04T04:38:44;19.57;65.45
74416;SHT31;62850;42.428;25.618;2023-06-04T04:41:10;19.66;65.25
74416;SHT31;62850;42.428;25.618;2023-06-04T04:43:37;19.50;64.56
74416;SHT31;62850;42.428;25.618;2023-06-04T04:46:05;19.53;65.11
74416;SHT31;62850;42.428;25.618;2023-06-04T04:48:31;19.63;64.30
74416;SHT31;62850;42.428;25.618;2023-06-04T04:50:58;19.70;64.10
74416;SHT31;62850;42.428;25.618;2023-06-04T04:53:23;19.74;63.75
74416;SHT31;62850;42.428;25.618;2023-06-04T04:55:49;19.77;63.62
74416;SHT31;62850;42.428;25.618;2023-06-04T04:58:15;19.84;64.23
74416;SHT31;62850;42.428;25.618;2023-06-04T05:00:41;19.98;64.37
74416;SHT31;62850;42.428;25.618;2023-06-04T05:03:06;19.90;68.37
74416;SHT31;62850;42.428;25.618;2023-06-04T05:05:33;19.90;68.27
74416;SHT31;62850;42.428;25.618;2023-06-04T05:07:58;19.85;69.32
74416;SHT31;62850;42.428;25.618;2023-06-04T05:10:24;19.80;69.57
74416;SHT31;62850;42.428;25.618;2023-06-04T05:12:52;19.78;70.91
74416;SHT31;62850;42.428;25.618;2023-06-04T05:15:18;19.81;70.24
74416;SHT31;62850;42.428;25.618;2023-06-04T05:17:45;19.81;70.75
74416;SHT31;62850;42.428;25.618;2023-06-04T05:20:12;19.83;70.77
74416;SHT31;62850;42.428;25.618;2023-06-04T05:22:38;19.81;70.14
74416;SHT31;62850;42.428;25.618;2023-06-04T05:25:04;19.87;69.36
74416;SHT31;62850;42.428;25.618;2023-06-04T05:27:31;19.94;69.55
74416;SHT31;62850;42.428;25.618;2023-06-04T05:30:00;20.05;69.28
74416;SHT31;62850;42.428;25.618;2023-06-04T05:32:26;20.10;68.76
74416;SHT31;62850;42.428;25.618;2023-06-04T05:34:54;20.08;69.36
74416;SHT31;62850;42.428;25.618;2023-06-04T05:37:25;20.17;68.61
74416;SHT31;62850;42.428;25.618;2023-06-04T05:39:55;20.22;68.59
74416;SHT31;62850;42.428;25.618;2023-06-04T05:42:20;20.31;67.86
74416;SHT31;62850;42.428;25.618;2023-06-04T05:44:46;20.31;68.16
74416;SHT31;62850;42.428;25.618;2023-06-04T05:47:12;20.32;67.69
74416;SHT31;62850;42.428;25.618;2023-06-04T05:49:37;20.38;67.33
74416;SHT31;62850;42.428;25.618;2023-06-04T05:52:03;20.42;67.75
74416;SHT31;62850;42.428;25.618;2023-06-04T05:54:29;20.45;67.48
74416;SHT31;62850;42.428;25.618;2023-06-04T05:56:55;20.46;67.43
74416;SHT31;62850;42.428;25.618;2023-06-04T05:59:21;20.46;67.32
74416;SHT31;62850;42.428;25.618;2023-06-04T06:01:46;20.42;67.67
74416;SHT31;62850;42.428;25.618;2023-06-04T06:04:14;20.36;67.25
74416;SHT31;62850;42.428;25.618;2023-06-04T06:06:39;20.25;66.92
74416;SHT31;62850;42.428;25.618;2023-06-04T06:09:06;20.14;66.55
74416;SHT31;62850;42.428;25.618;2023-06-04T06:11:31;20.05;67.21
74416;SHT31;62850;42.428;25.618;2023-06-04T06:13:57;20.14;67.47
74416;SHT31;62850;42.428;25.618;2023-06-04T06:16:22;20.12;67.28
74416;SHT31;62850;42.428;25.618;2023-06-04T06:18:48;20.15;67.61
74416;SHT31;62850;42.428;25.618;2023-06-04T06:21:13;20.04;68.36
74416;SHT31;62850;42.428;25.618;2023-06-04T06:23:39;20.07;69.12
74416;SHT31;62850;42.428;25.618;2023-06-04T06:26:04;20.05;69.40
74416;SHT31;62850;42.428;25.618;2023-06-04T06:28:33;20.01;69.86
74416;SHT31;62850;42.428;25.618;2023-06-04T06:30:59;19.98;70.17
74416;SHT31;62850;42.428;25.618;2023-06-04T06:33:25;19.98;69.65
74416;SHT31;62850;42.428;25.618;2023-06-04T06:35:51;20.01;69.99
74416;SHT31;62850;42.428;25.618;2023-06-04T06:38:16;19.98;70.20
74416;SHT31;62850;42.428;25.618;2023-06-04T06:40:42;19.95;71.00
74416;SHT31;62850;42.428;25.618;2023-06-04T06:43:07;19.85;70.99
74416;SHT31;62850;42.428;25.618;2023-06-04T06:45:33;19.83;70.89
74416;SHT31;62850;42.428;25.618;2023-06-04T06:47:58;19.80;70.97
74416;SHT31;62850;42.428;25.618;2023-06-04T06:50:24;19.80;70.94
74416;SHT31;62850;42.428;25.618;2023-06-04T06:52:49;19.75;71.62
74416;SHT31;62850;42.428;25.618;2023-06-04T06:55:15;19.75;72.00
74416;SHT31;62850;42.428;25.618;2023-06-04T06:57:40;19.73;72.55
74416;SHT31;62850;42.428;25.618;2023-06-04T07:00:08;19.66;73.18
74416;SHT31;62850;42.428;25.618;2023-06-04T07:02:33;19.62;73.41
74416;SHT31;62850;42.428;25.618;2023-06-04T07:04:59;19.53;74.43
74416;SHT31;62850;42.428;25.618;2023-06-04T07:07:25;19.46;74.75
74416;SHT31;62850;42.428;25.618;2023-06-04T07:09:50;19.45;75.19
74416;SHT31;62850;42.428;25.618;2023-06-04T07:12:16;19.42;75.53
74416;SHT31;62850;42.428;25.618;2023-06-04T07:14:42;19.35;75.99
74416;SHT31;62850;42.428;25.618;2023-06-04T07:17:07;19.29;76.43
74416;SHT31;62850;42.428;25.618;2023-06-04T07:19:33;19.26;76.74
74416;SHT31;62850;42.428;25.618;2023-06-04T07:21:58;19.22;76.72
74416;SHT31;62850;42.428;25.618;2023-06-04T07:24:24;19.18;76.76
74416;SHT31;62850;42.428;25.618;2023-06-04T07:26:49;19.20;76.58
74416;SHT31;62850;42.428;25.618;2023-06-04T07:29:16;19.20;76.73
74416;SHT31;62850;42.428;25.618;2023-06-04T07:31:42;19.19;76.78
74416;SHT31;62850;42.428;25.618;2023-06-04T07:34:07;19.19;76.76
74416;SHT31;62850;42.428;25.618;2023-06-04T07:36:33;19.20;76.96
74416;SHT31;62850;42.428;25.618;2023-06-04T07:38:59;19.14;77.02
74416;SHT31;62850;42.428;25.618;2023-06-04T07:41:25;19.20;76.41
74416;SHT31;62850;42.428;25.618;2023-06-04T07:43:53;19.06;76.76
74416;SHT31;62850;42.428;25.618;2023-06-04T07:46:19;19.02;77.04
74416;SHT31;62850;42.428;25.618;2023-06-04T07:48:45;19.05;76.79
74416;SHT31;62850;42.428;25.618;2023-06-04T07:51:10;18.98;77.24
74416;SHT31;62850;42.428;25.618;2023-06-04T07:53:36;19.05;77.33
74416;SHT31;62850;42.428;25.618;2023-06-04T07:56:03;19.04;77.37
74416;SHT31;62850;42.428;25.618;2023-06-04T07:58:28;18.99;77.80
74416;SHT31;62850;42.428;25.618;2023-06-04T08:00:54;18.94;77.90
74416;SHT31;62850;42.428;25.618;2023-06-04T08:03:19;18.94;77.74
74416;SHT31;62850;42.428;25.618;2023-06-04T08:05:45;18.95;77.79
74416;SHT31;62850;42.428;25.618;2023-06-04T08:08:11;18.96;77.64
74416;SHT31;62850;42.428;25.618;2023-06-04T08:10:36;18.96;78.13
74416;SHT31;62850;42.428;25.618;2023-06-04T08:13:02;18.89;78.51
74416;SHT31;62850;42.428;25.618;2023-06-04T08:15:28;18.94;79.02
74416;SHT31;62850;42.428;25.618;2023-06-04T08:17:53;18.88;78.41
74416;SHT31;62850;42.428;25.618;2023-06-04T08:20:19;18.87;78.96
74416;SHT31;62850;42.428;25.618;2023-06-04T08:22:44;18.89;78.79
74416;SHT31;62850;42.428;25.618;2023-06-04T08:25:09;18.79;79.22
74416;SHT31;62850;42.428;25.618;2023-06-04T08:27:35;18.87;79.54
74416;SHT31;62850;42.428;25.618;2023-06-04T08:30:01;18.85;79.40
74416;SHT31;62850;42.428;25.618;2023-06-04T08:32:27;18.84;79.39
74416;SHT31;62850;42.428;25.618;2023-06-04T08:34:54;18.87;79.63
74416;SHT31;62850;42.428;25.618;2023-06-04T08:37:20;18.88;79.70
74416;SHT31;62850;42.428;25.618;2023-06-04T08:39:45;18.91;78.96
74416;SHT31;62850;42.428;25.618;2023-06-04T08:44:50;18.96;79.92
74416;SHT31;62850;42.428;25.618;2023-06-04T08:47:18;18.94;79.66
74416;SHT31;62850;42.428;25.618;2023-06-04T08:49:49;18.89;79.34
74416;SHT31;62850;42.428;25.618;2023-06-04T08:52:18;18.83;79.20
74416;SHT31;62850;42.428;25.618;2023-06-04T08:54:50;18.89;79.49
74416;SHT31;62850;42.428;25.618;2023-06-04T08:57:19;18.95;78.23
74416;SHT31;62850;42.428;25.618;2023-06-04T08:59:46;18.88;78.46
74416;SHT31;62850;42.428;25.618;2023-06-04T09:02:15;18.96;77.97
74416;SHT31;62850;42.428;25.618;2023-06-04T09:04:42;18.95;77.12
74416;SHT31;62850;42.428;25.618;2023-06-04T09:07:08;18.94;75.56
74416;SHT31;62850;42.428;25.618;2023-06-04T09:09:38;18.99;75.98
74416;SHT31;62850;42.428;25.618;2023-06-04T09:12:05;19.08;75.86
74416;SHT31;62850;42.428;25.618;2023-06-04T09:14:33;19.23;75.98
74416;SHT31;62850;42.428;25.618;2023-06-04T09:16:59;19.43;75.63
74416;SHT31;62850;42.428;25.618;2023-06-04T09:19:24;19.49;74.99
74416;SHT31;62850;42.428;25.618;2023-06-04T09:21:55;19.66;73.94
74416;SHT31;62850;42.428;25.618;2023-06-04T09:24:23;19.69;72.09
74416;SHT31;62850;42.428;25.618;2023-06-04T09:26:50;19.85;72.71
74416;SHT31;62850;42.428;25.618;2023-06-04T09:29:16;19.88;71.21
74416;SHT31;62850;42.428;25.618;2023-06-04T09:31:45;20.03;71.38
74416;SHT31;62850;42.428;25.618;2023-06-04T09:34:12;20.00;71.18
74416;SHT31;62850;42.428;25.618;2023-06-04T09:36:37;20.05;70.86
74416;SHT31;62850;42.428;25.618;2023-06-04T09:39:03;20.15;70.05
74416;SHT31;62850;42.428;25.618;2023-06-04T09:41:30;20.32;70.37
74416;SHT31;62850;42.428;25.618;2023-06-04T09:44:02;20.52;69.53
74416;SHT31;62850;42.428;25.618;2023-06-04T09:46:28;20.71;68.98
74416;SHT31;62850;42.428;25.618;2023-06-04T09:49:02;20.89;69.13
74416;SHT31;62850;42.428;25.618;2023-06-04T09:51:29;21.06;69.69
74416;SHT31;62850;42.428;25.618;2023-06-04T09:54:02;21.11;67.46
74416;SHT31;62850;42.428;25.618;2023-06-04T09:56:29;20.97;67.11
74416;SHT31;62850;42.428;25.618;2023-06-04T09:58:59;20.97;67.52
74416;SHT31;62850;42.428;25.618;2023-06-04T10:01:28;21.20;68.38
74416;SHT31;62850;42.428;25.618;2023-06-04T10:03:57;21.40;68.57
74416;SHT31;62850;42.428;25.618;2023-06-04T10:06:25;21.54;67.90
74416;SHT31;62850;42.428;25.618;2023-06-04T10:08:52;21.58;67.25
74416;SHT31;62850;42.428;25.618;2023-06-04T10:11:26;21.55;67.24
74416;SHT31;62850;42.428;25.618;2023-06-04T10:14:03;21.61;65.56
74416;SHT31;62850;42.428;25.618;2023-06-04T10:16:32;21.52;64.97
74416;SHT31;62850;42.428;25.618;2023-06-04T10:18:58;21.55;64.88
74416;SHT31;62850;42.428;25.618;2023-06-04T10:21:26;21.75;65.03
74416;SHT31;62850;42.428;25.618;2023-06-04T10:23:51;21.88;64.10
74416;SHT31;62850;42.428;25.618;2023-06-04T10:26:17;21.98;64.23
74416;SHT31;62850;42.428;25.618;2023-06-04T10:28:43;22.12;64.67
74416;SHT31;62850;42.428;25.618;2023-06-04T10:31:10;22.23;61.82
74416;SHT31;62850;42.428;25.618;2023-06-04T10:33:36;21.96;62.01
74416;SHT31;62850;42.428;25.618;2023-06-04T10:36:19;22.02;62.82
74416;SHT31;62850;42.428;25.618;2023-06-04T10:38:49;22.29;63.37
74416;SHT31;62850;42.428;25.618;2023-06-04T10:41:17;22.49;63.76
74416;SHT31;62850;42.428;25.618;2023-06-04T10:43:44;22.64;62.31
74416;SHT31;62850;42.428;25.618;2023-06-04T10:46:14;22.64;61.20
74416;SHT31;62850;42.428;25.618;2023-06-04T10:51:11;22.79;61.00
74416;SHT31;62850;42.428;25.618;2023-06-04T10:53:37;22.92;60.02
74416;SHT31;62850;42.428;25.618;2023-06-04T10:56:02;22.90;59.48
74416;SHT31;62850;42.428;25.618;2023-06-04T10:58:32;22.97;60.74
74416;SHT31;62850;42.428;25.618;2023-06-04T11:00:57;22.88;60.16
74416;SHT31;62850;42.428;25.618;2023-06-04T11:03:23;22.86;61.21
74416;SHT31;62850;42.428;25.618;2023-06-04T11:05:49;22.87;62.09
74416;SHT31;62850;42.428;25.618;2023-06-04T11:08:29;22.95;61.55
74416;SHT31;62850;42.428;25.618;2023-06-04T11:10:54;22.99;60.23
74416;SHT31;62850;42.428;25.618;2023-06-04T11:13:26;23.08;60.15
74416;SHT31;62850;42.428;25.618;2023-06-04T11:15:51;23.09;59.82
74416;SHT31;62850;42.428;25.618;2023-06-04T11:18:19;23.22;60.17
74416;SHT31;62850;42.428;25.618;2023-06-04T11:20:47;23.25;59.57
74416;SHT31;62850;42.428;25.618;2023-06-04T11:23:14;23.36;60.35
74416;SHT31;62850;42.428;25.618;2023-06-04T11:25:41;23.55;58.90
74416;SHT31;62850;42.428;25.618;2023-06-04T11:28:15;23.74;57.93
74416;SHT31;62850;42.428;25.618;2023-06-04T11:30:41;23.77;56.72
74416;SHT31;62850;42.428;25.618;2023-06-04T11:33:06;23.78;56.79
74416;SHT31;62850;42.428;25.618;2023-06-04T11:35:40;24.08;56.33
74416;SHT31;62850;42.428;25.618;2023-06-04T11:38:07;24.49;56.43
74416;SHT31;62850;42.428;25.618;2023-06-04T11:40:32;24.45;56.53
74416;SHT31;62850;42.428;25.618;2023-06-04T11:42:58;24.49;55.07
74416;SHT31;62850;42.428;25.618;2023-06-04T11:45:24;24.42;55.29
74416;SHT31;62850;42.428;25.618;2023-06-04T11:47:55;24.59;55.25
74416;SHT31;62850;42.428;25.618;2023-06-04T11:50:21;24.85;54.47
74416;SHT31;62850;42.428;25.618;2023-06-04T11:52:48;24.86;55.03
74416;SHT31;62850;42.428;25.618;2023-06-04T11:55:14;25.26;54.17
74416;SHT31;62850;42.428;25.618;2023-06-04T11:57:43;25.72;52.45
74416;SHT31;62850;42.428;25.618;2023-06-04T12:00:09;25.80;53.41
74416;SHT31;62850;42.428;25.618;2023-06-04T12:02:38;25.72;54.22
74416;SHT31;62850;42.428;25.618;2023-06-04T12:05:14;25.74;51.79
74416;SHT31;62850;42.428;25.618;2023-06-04T12:07:40;26.11;51.00
74416;SHT31;62850;42.428;25.618;2023-06-04T12:10:07;26.43;51.56
74416;SHT31;62850;42.428;25.618;2023-06-04T12:12:34;26.42;50.73
74416;SHT31;62850;42.428;25.618;2023-06-04T12:15:00;26.56;51.37
74416;SHT31;62850;42.428;25.618;2023-06-04T12:17:25;26.40;50.26
74416;SHT31;62850;42.428;25.618;2023-06-04T12:19:51;26.67;50.64
74416;SHT31;62850;42.428;25.618;2023-06-04T12:22:17;26.83;50.82
74416;SHT31;62850;42.428;25.618;2023-06-04T12:25:01;26.67;49.26
74416;SHT31;62850;42.428;25.618;2023-06-04T12:27:28;26.65;50.41
74416;SHT31;62850;42.428;25.618;2023-06-04T12:30:04;26.77;50.91
74416;SHT31;62850;42.428;25.618;2023-06-04T12:32:36;26.53;51.45
74416;SHT31;62850;42.428;25.618;2023-06-04T12:35:02;26.50;51.30
74416;SHT31;62850;42.428;25.618;2023-06-04T12:37:27;26.60;51.34
74416;SHT31;62850;42.428;25.618;2023-06-04T12:39:54;26.69;52.65
74416;SHT31;62850;42.428;25.618;2023-06-04T12:42:20;26.80;50.88
74416;SHT31;62850;42.428;25.618;2023-06-04T12:44:46;26.88;50.57
74416;SHT31;62850;42.428;25.618;2023-06-04T12:47:11;26.80;50.00
74416;SHT31;62850;42.428;25.618;2023-06-04T12:49:37;26.84;49.29
74416;SHT31;62850;42.428;25.618;2023-06-04T12:52:03;27.00;49.95
74416;SHT31;62850;42.428;25.618;2023-06-04T12:54:29;26.65;49.96
74416;SHT31;62850;42.428;25.618;2023-06-04T12:56:56;26.26;49.99
74416;SHT31;62850;42.428;25.618;2023-06-04T12:59:25;26.39;49.55
74416;SHT31;62850;42.428;25.618;2023-06-04T13:01:51;26.79;49.78
74416;SHT31;62850;42.428;25.618;2023-06-04T13:04:17;27.04;50.54
74416;SHT31;62850;42.428;25.618;2023-06-04T13:06:43;27.10;49.03
74416;SHT31;62850;42.428;25.618;2023-06-04T13:09:08;26.83;49.06
74416;SHT31;62850;42.428;25.618;2023-06-04T13:11:39;26.71;48.86
74416;SHT31;62850;42.428;25.618;2023-06-04T13:14:04;26.65;49.43
74416;SHT31;62850;42.428;25.618;2023-06-04T13:16:30;26.32;51.17
74416;SHT31;62850;42.428;25.618;2023-06-04T13:18:56;25.82;52.96
74416;SHT31;62850;42.428;25.618;2023-06-04T13:21:21;25.13;54.78
74416;SHT31;62850;42.428;25.618;2023-06-04T13:23:47;25.24;55.52
74416;SHT31;62850;42.428;25.618;2023-06-04T13:26:12;25.31;56.01
74416;SHT31;62850;42.428;25.618;2023-06-04T13:28:38;25.04;55.81
74416;SHT31;62850;42.428;25.618;2023-06-04T13:31:03;25.00;55.86
74416;SHT31;62850;42.428;25.618;2023-06-04T13:33:31;24.80;56.30
74416;SHT31;62850;42.428;25.618;2023-06-04T13:35:59;24.38;56.91
74416;SHT31;62850;42.428;25.618;2023-06-04T13:38:25;24.45;57.55
74416;SHT31;62850;42.428;25.618;2023-06-04T13:40:50;24.45;57.68
74416;SHT31;62850;42.428;25.618;2023-06-04T13:43:16;24.48;56.89
74416;SHT31;62850;42.428;25.618;2023-06-04T13:45:42;24.34;56.84
74416;SHT31;62850;42.428;25.618;2023-06-04T13:48:09;24.47;56.93
74416;SHT31;62850;42.428;25.618;2023-06-04T13:50:35;24.61;55.79
74416;SHT31;62850;42.428;25.618;2023-06-04T13:53:00;24.86;55.05
74416;SHT31;62850;42.428;25.618;2023-06-04T13:55:26;25.03;53.71
74416;SHT31;62850;42.428;25.618;2023-06-04T13:57:51;25.37;52.48
74416;SHT31;62850;42.428;25.618;2023-06-04T14:00:17;25.71;51.67
74416;SHT31;62850;42.428;25.618;2023-06-04T14:02:42;26.01;50.84
74416;SHT31;62850;42.428;25.618;2023-06-04T14:05:08;26.03;50.57
74416;SHT31;62850;42.428;25.618;2023-06-04T14:07:34;26.50;50.54
74416;SHT31;62850;42.428;25.618;2023-06-04T14:09:59;26.84;49.37
74416;SHT31;62850;42.428;25.618;2023-06-04T14:12:25;27.24;49.13
74416;SHT31;62850;42.428;25.618;2023-06-04T14:14:51;27.69;48.50
74416;SHT31;62850;42.428;25.618;2023-06-04T14:17:17;27.58;48.54
74416;SHT31;62850;42.428;25.618;2023-06-04T14:19:42;27.00;49.37
74416;SHT31;62850;42.428;25.618;2023-06-04T14:22:09;26.80;50.48
74416;SHT31;62850;42.428;25.618;2023-06-04T14:24:34;27.00;50.38
74416;SHT31;62850;42.428;25.618;2023-06-04T14:27:00;26.67;50.69
74416;SHT31;62850;42.428;25.618;2023-06-04T14:29:25;26.06;52.20
74416;SHT31;62850;42.428;25.618;2023-06-04T14:31:51;25.99;52.87
74416;SHT31;62850;42.428;25.618;2023-06-04T14:34:16;26.11;53.14
74416;SHT31;62850;42.428;25.618;2023-06-04T14:36:41;25.85;52.93
74416;SHT31;62850;42.428;25.618;2023-06-04T14:39:07;25.89;53.02
74416;SHT31;62850;42.428;25.618;2023-06-04T14:41:32;25.85;53.18
74416;SHT31;62850;42.428;25.618;2023-06-04T14:43:58;25.80;52.79
74416;SHT31;62850;42.428;25.618;2023-06-04T14:46:24;26.05;52.70
74416;SHT31;62850;42.428;25.618;2023-06-04T14:48:50;25.89;53.02
74416;SHT31;62850;42.428;25.618;2023-06-04T14:51:16;26.13;53.71
74416;SHT31;62850;42.428;25.618;2023-06-04T14:53:41;26.06;53.54
74416;SHT31;62850;42.428;25.618;2023-06-04T14:56:06;25.86;53.49
74416;SHT31;62850;42.428;25.618;2023-06-04T14:58:32;25.70;54.88
74416;SHT31;62850;42.428;25.618;2023-06-04T15:01:01;25.57;54.61
74416;SHT31;62850;42.428;25.618;2023-06-04T15:03:29;25.45;55.95
74416;SHT31;62850;42.428;25.618;2023-06-04T15:05:55;25.34;56.32
74416;SHT31;62850;42.428;25.618;2023-06-04T15:08:21;25.20;55.74
74416;SHT31;62850;42.428;25.618;2023-06-04T15:10:47;25.07;55.93
74416;SHT31;62850;42.428;25.618;2023-06-04T15:13:12;24.93;55.49
74416;SHT31;62850;42.428;25.618;2023-06-04T15:15:38;24.85;55.40
74416;SHT31;62850;42.428;25.618;2023-06-04T15:18:03;24.76;55.71
74416;SHT31;62850;42.428;25.618;2023-06-04T15:20:31;24.68;55.38
74416;SHT31;62850;42.428;25.618;2023-06-04T15:22:57;24.58;55.52